createdAt,value
2022-11-26T00:02:22.907Z,98489.17
2022-11-26T00:04:52.531Z,98488.95
2022-11-26T00:07:26.178Z,98489.87
2022-11-26T00:09:56.027Z,98496.39
2022-11-26T00:12:29.149Z,98498.96
2022-11-26T00:14:57.132Z,98494.77
2022-11-26T00:17:25.163Z,98490.77
2022-11-26T00:19:53.250Z,98496.20
2022-11-26T00:22:28.969Z,98497.78
2022-11-26T00:24:57.687Z,98497.73
2022-11-26T00:27:28.442Z,98503.60
2022-11-26T00:29:56.493Z,98507.98
2022-11-26T00:32:26.691Z,98510.94
2022-11-26T00:34:54.869Z,98509.55
2022-11-26T00:37:27.629Z,98513.67
2022-11-26T00:39:57.439Z,98517.10
2022-11-26T00:42:25.701Z,98515.52
2022-11-26T00:44:53.829Z,98514.36
2022-11-26T00:47:21.734Z,98515.95
2022-11-26T00:49:50.012Z,98512.77
2022-11-26T00:52:32.583Z,98513.52
2022-11-26T00:55:06.968Z,98506.18
2022-11-26T00:57:35.222Z,98505.80
2022-11-26T01:00:18.857Z,98507.86
2022-11-26T01:02:47.272Z,98512.35
2022-11-26T01:05:16.822Z,98512.57
2022-11-26T01:07:45.576Z,98519.21
2022-11-26T01:10:16.761Z,98520.59
2022-11-26T01:12:45.177Z,98524.53
2022-11-26T01:15:14.549Z,98526.31
2022-11-26T01:17:43.386Z,98528.36
2022-11-26T01:20:25.173Z,98532.27
2022-11-26T01:22:55.140Z,98536.52
2022-11-26T01:25:25.418Z,98538.86
2022-11-26T01:27:53.741Z,98543.46
2022-11-26T01:30:25.794Z,98544.77
2022-11-26T01:32:53.944Z,98543.76
2022-11-26T01:35:22.735Z,98539.83
2022-11-26T01:37:51.149Z,98539.35
2022-11-26T01:40:37.710Z,98537.17
2022-11-26T01:43:12.018Z,98532.79
2022-11-26T01:45:40.363Z,98532.05
2022-11-26T01:48:20.699Z,98531.20
2022-11-26T01:50:56.579Z,98529.89
2022-11-26T01:53:38.382Z,98527.84
2022-11-26T01:56:18.482Z,98528.44
2022-11-26T01:58:51.594Z,98532.27
2022-11-26T02:01:20.121Z,98536.48
2022-11-26T02:03:57.213Z,98537.74
2022-11-26T02:06:31.710Z,98537.39
2022-11-26T02:09:02.213Z,98542.06
2022-11-26T02:11:30.889Z,98543.93
2022-11-26T02:14:04.315Z,98548.22
2022-11-26T02:16:46.960Z,98547.06
2022-11-26T02:19:47.971Z,98546.13
2022-11-26T02:22:24.908Z,98541.75
2022-11-26T02:24:58.941Z,98542.07
2022-11-26T02:28:00.564Z,98543.25
2022-11-26T02:30:36.539Z,98542.21
2022-11-26T02:33:11.814Z,98542.08
2022-11-26T02:35:56.487Z,98541.20
2022-11-26T02:38:30.555Z,98536.78
2022-11-26T02:41:00.575Z,98533.82
2022-11-26T02:43:30.102Z,98530.23
2022-11-26T02:46:05.161Z,98527.59
2022-11-26T02:48:37.514Z,98530.42
2022-11-26T02:51:10.751Z,98525.90
2022-11-26T02:53:40.219Z,98524.23
2022-11-26T02:56:26.438Z,98522.55
2022-11-26T02:58:56.326Z,98522.95
2022-11-26T03:01:41.544Z,98521.27
2022-11-26T03:04:17.074Z,98525.54
2022-11-26T03:06:46.697Z,98528.66
2022-11-26T03:09:18.132Z,98528.50
2022-11-26T03:11:46.153Z,98526.91
2022-11-26T03:14:14.403Z,98527.22
2022-11-26T03:16:42.566Z,98524.35
2022-11-26T03:19:10.883Z,98523.59
2022-11-26T03:21:38.909Z,98529.90
2022-11-26T03:24:07.035Z,98533.02
2022-11-26T03:26:35.202Z,98544.45
2022-11-26T03:29:03.303Z,98553.33
2022-11-26T03:31:31.697Z,98561.05
2022-11-26T03:33:59.791Z,98563.13
2022-11-26T03:36:27.891Z,98571.66
2022-11-26T03:38:55.943Z,98575.17
2022-11-26T03:41:24.200Z,98580.53
2022-11-26T03:43:52.311Z,98579.60
2022-11-26T03:46:20.587Z,98582.04
2022-11-26T03:48:48.699Z,98583.13
2022-11-26T03:51:16.966Z,98584.79
2022-11-26T03:53:45.079Z,98590.02
2022-11-26T03:56:13.310Z,98593.13
2022-11-26T03:58:41.400Z,98598.08
2022-11-26T04:01:11.314Z,98601.90
2022-11-26T04:03:40.051Z,98601.44
2022-11-26T04:06:08.377Z,98605.15
2022-11-26T04:08:36.797Z,98610.16
2022-11-26T04:11:04.887Z,98614.86
2022-11-26T04:13:32.914Z,98619.79
2022-11-26T04:16:01.112Z,98618.63
2022-11-26T04:18:29.055Z,98621.96
2022-11-26T04:20:57.086Z,98620.91
2022-11-26T04:23:25.221Z,98619.44
2022-11-26T04:25:53.399Z,98620.09
2022-11-26T04:28:21.514Z,98622.59
2022-11-26T04:30:49.566Z,98625.70
2022-11-26T04:33:17.763Z,98626.48
2022-11-26T04:35:45.974Z,98628.01
2022-11-26T04:38:14.152Z,98630.86
2022-11-26T04:40:42.210Z,98631.98
2022-11-26T04:43:10.168Z,98634.33
2022-11-26T04:45:38.186Z,98633.55
2022-11-26T04:48:06.764Z,98631.73
2022-11-26T04:50:34.803Z,98632.23
2022-11-26T04:53:02.898Z,98632.75
2022-11-26T04:55:31.012Z,98635.01
2022-11-26T04:57:59.333Z,98634.36
2022-11-26T05:00:27.592Z,98630.54
2022-11-26T05:02:55.685Z,98628.86
2022-11-26T05:05:23.831Z,98628.34
2022-11-26T05:07:52.066Z,98629.14
2022-11-26T05:10:20.349Z,98627.73
2022-11-26T05:12:48.493Z,98624.73
2022-11-26T05:15:16.649Z,98629.91
2022-11-26T05:17:44.698Z,98633.89
2022-11-26T05:20:14.975Z,98635.81
2022-11-26T05:22:43.243Z,98634.97
2022-11-26T05:25:11.280Z,98636.80
2022-11-26T05:27:39.523Z,98635.11
2022-11-26T05:30:08.427Z,98635.20
2022-11-26T05:32:36.441Z,98632.95
2022-11-26T05:35:05.348Z,98630.88
2022-11-26T05:37:33.579Z,98632.55
2022-11-26T05:40:01.734Z,98632.54
2022-11-26T05:42:29.807Z,98632.00
2022-11-26T05:44:57.785Z,98638.40
2022-11-26T05:47:25.841Z,98639.36
2022-11-26T05:49:54.255Z,98638.36
2022-11-26T05:52:22.966Z,98640.64
2022-11-26T05:54:51.089Z,98641.45
2022-11-26T05:57:20.150Z,98642.88
2022-11-26T05:59:51.673Z,98645.59
2022-11-26T06:02:19.886Z,98641.80
2022-11-26T06:04:48.063Z,98643.81
2022-11-26T06:07:15.999Z,98645.25
2022-11-26T06:09:44.248Z,98650.95
2022-11-26T06:12:12.325Z,98654.27
2022-11-26T06:14:43.224Z,98658.10
2022-11-26T06:17:12.145Z,98662.89
2022-11-26T06:19:40.278Z,98664.23
2022-11-26T06:22:08.693Z,98666.48
2022-11-26T06:24:37.295Z,98667.16
2022-11-26T06:27:05.759Z,98666.59
2022-11-26T06:29:34.011Z,98668.77
2022-11-26T06:32:02.576Z,98675.14
2022-11-26T06:34:30.595Z,98675.68
2022-11-26T06:36:58.667Z,98678.41
2022-11-26T06:39:27.025Z,98683.30
2022-11-26T06:41:55.159Z,98690.98
2022-11-26T06:44:23.142Z,98690.34
2022-11-26T06:46:51.288Z,98689.39
2022-11-26T06:49:19.397Z,98692.30
2022-11-26T06:51:47.385Z,98692.64
2022-11-26T06:54:15.573Z,98695.83
2022-11-26T06:56:43.724Z,98696.20
2022-11-26T06:59:12.030Z,98698.35
2022-11-26T07:01:40.381Z,98704.85
2022-11-26T07:04:10.482Z,98705.54
2022-11-26T07:06:39.496Z,98711.35
2022-11-26T07:09:10.036Z,98712.91
2022-11-26T07:11:39.426Z,98716.59
2022-11-26T07:14:08.546Z,98716.77
2022-11-26T07:16:37.239Z,98718.86
2022-11-26T07:19:05.355Z,98724.58
2022-11-26T07:21:33.553Z,98726.36
2022-11-26T07:24:01.629Z,98729.52
2022-11-26T07:26:29.830Z,98731.06
2022-11-26T07:28:57.884Z,98729.23
2022-11-26T07:31:26.054Z,98726.49
2022-11-26T07:33:54.292Z,98732.58
2022-11-26T07:36:24.776Z,98740.82
2022-11-26T07:39:01.517Z,98742.43
2022-11-26T07:41:30.596Z,98745.49
2022-11-26T07:43:58.568Z,98747.39
2022-11-26T07:46:27.339Z,98749.87
2022-11-26T07:48:56.071Z,98755.88
2022-11-26T07:51:29.710Z,98759.29
2022-11-26T07:54:00.124Z,98761.46
2022-11-26T07:56:28.619Z,98760.50
2022-11-26T07:58:56.905Z,98764.76
2022-11-26T08:01:28.391Z,98769.14
2022-11-26T08:03:58.206Z,98771.64
2022-11-26T08:06:30.506Z,98769.27
2022-11-26T08:09:00.117Z,98769.67
2022-11-26T08:11:30.865Z,98768.23
2022-11-26T08:14:05.173Z,98769.27
2022-11-26T08:16:34.333Z,98770.36
2022-11-26T08:19:10.944Z,98772.14
2022-11-26T08:21:40.017Z,98779.67
2022-11-26T08:24:16.310Z,98780.96
2022-11-26T08:26:45.138Z,98783.61
2022-11-26T08:29:13.890Z,98785.89
2022-11-26T08:31:46.002Z,98787.13
2022-11-26T08:34:16.066Z,98790.20
2022-11-26T08:36:45.609Z,98794.54
2022-11-26T08:39:18.467Z,98799.30
2022-11-26T08:41:52.078Z,98799.23
2022-11-26T08:44:21.661Z,98802.77
2022-11-26T08:46:50.687Z,98804.20
2022-11-26T08:49:18.826Z,98804.62
2022-11-26T08:51:46.859Z,98803.30
2022-11-26T08:54:15.132Z,98803.87
2022-11-26T08:56:43.346Z,98806.00
2022-11-26T08:59:11.447Z,98802.63
2022-11-26T09:01:40.478Z,98806.02
2022-11-26T09:04:08.623Z,98806.07
2022-11-26T09:06:41.027Z,98804.32
2022-11-26T09:09:12.923Z,98806.90
2022-11-26T09:11:57.388Z,98807.42
2022-11-26T09:14:29.843Z,98807.84
2022-11-26T09:17:03.758Z,98803.20
2022-11-26T09:19:38.476Z,98802.78
2022-11-26T09:22:11.438Z,98801.70
2022-11-26T09:24:50.871Z,98804.23
2022-11-26T09:27:20.457Z,98801.91
2022-11-26T09:29:48.834Z,98806.73
2022-11-26T09:32:27.133Z,98803.59
2022-11-26T09:34:59.317Z,98805.70
2022-11-26T09:37:27.277Z,98810.66
2022-11-26T09:39:55.707Z,98814.63
2022-11-26T09:42:37.860Z,98817.36
2022-11-26T09:45:21.587Z,98823.01
2022-11-26T09:47:53.306Z,98823.39
2022-11-26T09:50:32.178Z,98821.21
2022-11-26T09:53:13.433Z,98825.10
2022-11-26T09:55:45.133Z,98827.79
2022-11-26T09:58:27.005Z,98826.61
2022-11-26T10:01:00.147Z,98826.75
2022-11-26T10:03:34.934Z,98825.62
2022-11-26T10:06:08.907Z,98825.47
2022-11-26T10:09:04.282Z,98828.16
2022-11-26T10:12:10.983Z,98828.81
2022-11-26T10:15:20.440Z,98827.48
2022-11-26T10:18:02.771Z,98828.87
2022-11-26T10:20:37.004Z,98831.27
2022-11-26T10:23:11.328Z,98835.91
2022-11-26T10:25:54.696Z,98834.77
2022-11-26T10:28:31.051Z,98832.91
2022-11-26T10:31:01.955Z,98834.03
2022-11-26T10:33:56.118Z,98833.90
2022-11-26T10:36:27.242Z,98840.52
2022-11-26T10:38:58.686Z,98842.73
2022-11-26T10:41:31.082Z,98842.22
2022-11-26T10:44:40.597Z,98842.59
2022-11-26T10:47:25.062Z,98840.80
2022-11-26T10:50:45.390Z,98843.73
2022-11-26T10:53:06.591Z,98843.61
2022-11-26T10:55:39.662Z,98841.17
2022-11-26T10:58:17.182Z,98841.27
2022-11-26T11:00:51.092Z,98842.34
2022-11-26T11:03:38.584Z,98841.79
2022-11-26T11:06:20.124Z,98845.17
2022-11-26T11:08:50.736Z,98848.75
2022-11-26T11:11:21.858Z,98846.17
2022-11-26T11:13:51.406Z,98847.16
2022-11-26T11:16:38.377Z,98843.03
2022-11-26T11:19:23.648Z,98838.67
2022-11-26T11:21:52.079Z,98838.55
2022-11-26T11:24:29.076Z,98838.86
2022-11-26T11:27:00.461Z,98832.73
2022-11-26T11:29:39.040Z,98828.22
2022-11-26T11:32:33.512Z,98829.10
2022-11-26T11:35:20.207Z,98829.92
2022-11-26T11:37:51.654Z,98828.45
2022-11-26T11:40:25.548Z,98825.34
2022-11-26T11:43:03.095Z,98826.58
2022-11-26T11:45:42.001Z,98828.47
2022-11-26T11:48:22.202Z,98830.56
2022-11-26T11:51:06.012Z,98830.95
2022-11-26T11:54:00.181Z,98827.20
2022-11-26T11:56:42.008Z,98825.66
2022-11-26T11:59:19.700Z,98826.55
2022-11-26T12:02:21.308Z,98830.79
2022-11-26T12:04:58.516Z,98829.88
2022-11-26T12:07:39.473Z,98828.04
2022-11-26T12:10:27.106Z,98829.36
2022-11-26T12:13:01.561Z,98828.95
2022-11-26T12:16:01.944Z,98825.66
2022-11-26T12:19:00.357Z,98826.38
2022-11-26T12:21:39.466Z,98824.84
2022-11-26T12:24:22.667Z,98820.64
2022-11-26T12:27:03.428Z,98820.59
2022-11-26T12:29:47.264Z,98815.59
2022-11-26T12:32:25.730Z,98818.25
2022-11-26T12:34:58.366Z,98815.90
2022-11-26T12:37:52.888Z,98813.39
2022-11-26T12:40:23.966Z,98811.31
2022-11-26T12:42:51.941Z,98812.01
2022-11-26T12:45:35.210Z,98813.67
2022-11-26T12:48:26.207Z,98813.04
2022-11-26T12:50:59.050Z,98814.51
2022-11-26T12:53:57.800Z,98807.38
2022-11-26T12:56:46.212Z,98810.04
2022-11-26T12:59:27.745Z,98810.03
2022-11-26T13:01:57.628Z,98812.80
2022-11-26T13:04:37.605Z,98813.58
2022-11-26T13:07:17.947Z,98813.64
2022-11-26T13:10:12.251Z,98811.13
2022-11-26T13:13:05.061Z,98808.13
2022-11-26T13:15:42.654Z,98803.38
2022-11-26T13:18:23.031Z,98801.61
2022-11-26T13:21:15.938Z,98802.18
2022-11-26T13:24:04.867Z,98805.60
2022-11-26T13:27:05.269Z,98811.58
2022-11-26T13:29:51.370Z,98817.56
2022-11-26T13:32:38.012Z,98823.24
2022-11-26T13:35:18.519Z,98828.98
2022-11-26T13:38:09.715Z,98832.54
2022-11-26T13:40:43.754Z,98834.78
2022-11-26T13:43:42.765Z,98842.27
2022-11-26T13:46:22.341Z,98846.45
2022-11-26T13:48:56.210Z,98851.88
2022-11-26T13:51:33.944Z,98854.55
2022-11-26T13:54:17.154Z,98857.87
2022-11-26T13:56:47.244Z,98864.11
2022-11-26T13:59:28.111Z,98863.86
2022-11-26T14:01:56.905Z,98866.46
2022-11-26T14:04:25.128Z,98864.58
2022-11-26T14:07:05.285Z,98867.19
2022-11-26T14:09:42.346Z,98869.45
2022-11-26T14:12:14.931Z,98869.55
2022-11-26T14:14:49.162Z,98871.22
2022-11-26T14:17:25.195Z,98873.69
2022-11-26T14:19:56.962Z,98878.43
2022-11-26T14:22:34.330Z,98883.27
2022-11-26T14:25:09.382Z,98882.33
2022-11-26T14:27:55.300Z,98879.48
2022-11-26T14:30:26.115Z,98881.33
2022-11-26T14:33:09.428Z,98884.20
2022-11-26T14:35:40.011Z,98882.99
2022-11-26T14:38:24.673Z,98881.84
2022-11-26T14:41:00.520Z,98889.56
2022-11-26T14:43:29.590Z,98891.84
2022-11-26T14:46:04.590Z,98885.39
2022-11-26T14:48:37.482Z,98884.48
2022-11-26T14:51:08.537Z,98885.33
2022-11-26T14:53:45.338Z,98886.09
2022-11-26T14:56:13.554Z,98883.20
2022-11-26T14:58:59.333Z,98881.45
2022-11-26T15:01:29.489Z,98882.20
2022-11-26T15:04:02.841Z,98883.58
2022-11-26T15:06:38.447Z,98885.91
2022-11-26T15:09:15.682Z,98885.45
2022-11-26T15:12:05.429Z,98884.85
2022-11-26T15:14:56.279Z,98883.90
2022-11-26T15:17:26.898Z,98886.00
2022-11-26T15:19:59.909Z,98888.86
2022-11-26T15:22:39.811Z,98883.89
2022-11-26T15:25:25.212Z,98885.48
2022-11-26T15:28:00.505Z,98882.16
2022-11-26T15:30:34.265Z,98887.84
2022-11-26T15:33:05.660Z,98890.92
2022-11-26T15:35:36.279Z,98889.49
2022-11-26T15:38:17.797Z,98888.13
2022-11-26T15:41:04.629Z,98890.27
2022-11-26T15:43:49.093Z,98892.11
2022-11-26T15:46:20.046Z,98889.73
2022-11-26T15:48:53.377Z,98885.39
2022-11-26T15:51:53.843Z,98890.20
2022-11-26T15:54:56.655Z,98895.18
2022-11-26T15:57:30.071Z,98891.02
2022-11-26T16:00:06.234Z,98890.87
2022-11-26T16:02:34.773Z,98893.14
2022-11-26T16:05:03.830Z,98894.29
2022-11-26T16:07:33.328Z,98890.72
2022-11-26T16:10:16.486Z,98887.67
2022-11-26T16:13:16.285Z,98890.86
2022-11-26T16:16:16.317Z,98897.70
2022-11-26T16:18:51.727Z,98905.84
2022-11-26T16:21:24.639Z,98902.46
2022-11-26T16:24:08.372Z,98896.50
2022-11-26T16:27:01.041Z,98896.00
2022-11-26T16:29:30.314Z,98900.27
2022-11-26T16:31:59.329Z,98900.39
2022-11-26T16:34:27.946Z,98899.27
2022-11-26T16:37:15.921Z,98897.82
2022-11-26T16:39:44.273Z,98900.25
2022-11-26T16:42:17.794Z,98899.63
2022-11-26T16:44:45.992Z,98901.48
2022-11-26T16:47:15.630Z,98905.00
2022-11-26T16:49:44.187Z,98909.61
2022-11-26T16:52:17.386Z,98910.33
2022-11-26T16:54:45.671Z,98915.34
2022-11-26T16:57:15.894Z,98918.96
2022-11-26T16:59:48.050Z,98923.91
2022-11-26T17:02:21.590Z,98920.73
2022-11-26T17:04:50.645Z,98919.44
2022-11-26T17:07:26.692Z,98921.90
2022-11-26T17:09:55.615Z,98918.42
2022-11-26T17:12:25.338Z,98917.55
2022-11-26T17:14:53.868Z,98923.00
2022-11-26T17:17:28.223Z,98928.24
2022-11-26T17:19:57.019Z,98929.02
2022-11-26T17:22:25.467Z,98930.65
2022-11-26T17:24:53.614Z,98927.88
2022-11-26T17:27:23.582Z,98926.52
2022-11-26T17:29:51.621Z,98929.14
2022-11-26T17:32:22.676Z,98932.54
2022-11-26T17:34:50.896Z,98928.13
2022-11-26T17:37:28.480Z,98926.94
2022-11-26T17:39:58.120Z,98927.23
2022-11-26T17:42:28.317Z,98926.79
2022-11-26T17:44:58.881Z,98930.34
2022-11-26T17:47:27.471Z,98927.93
2022-11-26T17:49:55.678Z,98926.23
2022-11-26T17:52:23.908Z,98927.10
2022-11-26T17:54:52.037Z,98928.30
2022-11-26T17:57:20.922Z,98931.81
2022-11-26T17:59:48.920Z,98940.60
2022-11-26T18:02:17.406Z,98940.73
2022-11-26T18:04:45.873Z,98945.02
2022-11-26T18:07:17.812Z,98940.61
2022-11-26T18:09:47.054Z,98943.34
2022-11-26T18:12:25.401Z,98945.52
2022-11-26T18:14:55.529Z,98951.76
2022-11-26T18:17:24.696Z,98950.73
2022-11-26T18:19:53.098Z,98947.03
2022-11-26T18:22:23.312Z,98948.02
2022-11-26T18:24:57.207Z,98949.36
2022-11-26T18:27:30.678Z,98948.52
2022-11-26T18:29:58.859Z,98949.15
2022-11-26T18:32:26.976Z,98948.80
2022-11-26T18:34:55.027Z,98952.09
2022-11-26T18:37:23.108Z,98951.01
2022-11-26T18:39:51.268Z,98951.41
2022-11-26T18:42:36.625Z,98954.23
2022-11-26T18:45:09.079Z,98954.46
2022-11-26T18:47:37.778Z,98956.55
2022-11-26T18:50:06.862Z,98957.15
2022-11-26T18:52:35.214Z,98956.63
2022-11-26T18:55:08.402Z,98956.27
2022-11-26T18:57:36.838Z,98955.20
2022-11-26T19:00:07.177Z,98956.81
2022-11-26T19:02:36.150Z,98960.02
2022-11-26T19:05:05.408Z,98961.04
2022-11-26T19:07:33.731Z,98961.19
2022-11-26T19:10:02.066Z,98961.13
2022-11-26T19:12:30.207Z,98964.21
2022-11-26T19:14:58.312Z,98970.80
2022-11-26T19:17:26.689Z,98975.25
2022-11-26T19:19:54.828Z,98974.55
2022-11-26T19:22:22.931Z,98975.34
2022-11-26T19:24:51.378Z,98975.04
2022-11-26T19:27:19.439Z,98973.28
2022-11-26T19:29:47.857Z,98977.21
2022-11-26T19:32:20.072Z,98978.60
2022-11-26T19:34:48.398Z,98977.98
2022-11-26T19:37:16.518Z,98974.65
2022-11-26T19:39:44.506Z,98972.27
2022-11-26T19:42:13.355Z,98974.20
2022-11-26T19:44:41.401Z,98975.06
2022-11-26T19:47:09.646Z,98973.19
2022-11-26T19:49:37.940Z,98973.52
2022-11-26T19:52:06.248Z,98976.03
2022-11-26T19:54:34.566Z,98977.65
2022-11-26T19:57:02.731Z,98981.95
2022-11-26T19:59:31.026Z,98987.22
2022-11-26T20:01:59.441Z,98987.71
2022-11-26T20:04:27.760Z,98988.77
2022-11-26T20:06:56.175Z,98988.61
2022-11-26T20:09:24.172Z,98988.70
2022-11-26T20:11:52.295Z,98991.22
2022-11-26T20:14:20.366Z,98990.80
2022-11-26T20:16:48.555Z,98990.48
2022-11-26T20:19:18.054Z,98992.48
2022-11-26T20:21:46.270Z,98991.65
2022-11-26T20:24:16.935Z,98994.89
2022-11-26T20:26:47.208Z,98992.35
2022-11-26T20:29:17.139Z,98990.15
2022-11-26T20:31:47.591Z,98991.14
2022-11-26T20:34:26.355Z,98992.26
2022-11-26T20:36:54.486Z,98991.25
2022-11-26T20:39:24.018Z,98988.73
2022-11-26T20:41:52.167Z,98994.02
2022-11-26T20:44:20.248Z,98993.13
2022-11-26T20:46:48.473Z,98989.86
2022-11-26T20:49:16.535Z,98991.56
2022-11-26T20:51:44.667Z,98989.23
2022-11-26T20:54:12.733Z,98991.52
2022-11-26T20:56:40.932Z,98987.77
2022-11-26T20:59:09.925Z,98988.95
2022-11-26T21:01:38.911Z,98990.91
2022-11-26T21:04:07.117Z,98995.73
2022-11-26T21:06:36.007Z,98991.63
2022-11-26T21:09:06.506Z,98995.84
2022-11-26T21:11:34.965Z,98999.14
2022-11-26T21:14:03.055Z,99005.33
2022-11-26T21:16:32.228Z,99006.40
2022-11-26T21:19:00.683Z,99009.88
2022-11-26T21:21:29.406Z,99006.98
2022-11-26T21:23:58.126Z,99008.41
2022-11-26T21:26:26.593Z,99008.31
2022-11-26T21:28:58.004Z,99008.74
2022-11-26T21:31:28.896Z,99008.55
2022-11-26T21:34:07.855Z,99004.97
2022-11-26T21:36:36.575Z,99004.63
2022-11-26T21:39:05.308Z,99002.10
2022-11-26T21:41:33.963Z,98998.82
2022-11-26T21:44:04.090Z,99000.43
2022-11-26T21:46:37.879Z,98999.55
2022-11-26T21:49:07.499Z,98999.73
2022-11-26T21:51:35.768Z,99001.10
2022-11-26T21:54:04.280Z,99001.43
2022-11-26T21:56:32.815Z,99001.55
2022-11-26T21:59:01.653Z,99000.20
2022-11-26T22:01:32.970Z,99001.28
2022-11-26T22:04:04.623Z,99001.98
2022-11-26T22:06:33.286Z,99004.64
2022-11-26T22:09:02.033Z,99003.64
2022-11-26T22:11:33.162Z,99000.53
2022-11-26T22:14:01.438Z,98997.31
2022-11-26T22:16:30.889Z,98995.09
2022-11-26T22:19:00.772Z,98991.94
2022-11-26T22:21:32.193Z,98994.11
2022-11-26T22:24:02.108Z,98989.36
2022-11-26T22:26:31.430Z,98986.46
2022-11-26T22:29:00.038Z,98986.90
2022-11-26T22:31:34.119Z,98987.13
2022-11-26T22:34:08.628Z,98982.33
2022-11-26T22:36:38.362Z,98982.20
2022-11-26T22:39:10.978Z,98986.98
2022-11-26T22:41:39.832Z,98984.83
2022-11-26T22:44:08.878Z,98982.86
2022-11-26T22:46:38.428Z,98984.57
2022-11-26T22:49:07.290Z,98987.98
2022-11-26T22:51:35.385Z,98987.79
2022-11-26T22:54:07.242Z,98984.00
2022-11-26T22:56:39.561Z,98977.61
2022-11-26T22:59:11.623Z,98976.41
2022-11-26T23:01:39.857Z,98970.67
2022-11-26T23:04:10.212Z,98965.55
2022-11-26T23:06:39.654Z,98962.17
2022-11-26T23:09:09.719Z,98968.85
2022-11-26T23:11:40.488Z,98971.63
2022-11-26T23:14:11.952Z,98978.52
2022-11-26T23:16:42.217Z,98984.67
2022-11-26T23:19:14.660Z,98987.23
2022-11-26T23:21:44.849Z,98990.15
2022-11-26T23:24:15.361Z,98989.67
2022-11-26T23:26:44.304Z,98994.63
2022-11-26T23:29:13.565Z,98992.92
2022-11-26T23:31:43.785Z,98989.33
2022-11-26T23:34:12.995Z,98988.48
2022-11-26T23:36:41.298Z,98985.30
2022-11-26T23:39:13.468Z,98986.17
2022-11-26T23:41:41.640Z,98988.40
2022-11-26T23:44:09.679Z,98989.84
2022-11-26T23:46:37.844Z,98989.96
2022-11-26T23:49:06.162Z,98989.47
2022-11-26T23:51:34.200Z,98989.34
2022-11-26T23:54:02.618Z,98987.17
2022-11-26T23:56:33.327Z,98986.64
2022-11-26T23:59:04.022Z,98988.02
